sensor_id;sensor_type;location;lat;lon;timestamp;temperature;humidity
67769;DHT22;54569;52.018;5.584;2022-09-09T00:02:01;16.10;73.50
67769;DHT22;54569;52.018;5.584;2022-09-09T00:09:26;16.00;74.10
67769;DHT22;54569;52.018;5.584;2022-09-09T00:11:59;16.00;74.30
67769;DHT22;54569;52.018;5.584;2022-09-09T00:17:30;15.90;79.20
67769;DHT22;54569;52.018;5.584;2022-09-09T00:22:29;15.80;74.60
67769;DHT22;54569;52.018;5.584;2022-09-09T00:25:08;15.70;74.90
67769;DHT22;54569;52.018;5.584;2022-09-09T00:27:47;15.70;75.20
67769;DHT22;54569;52.018;5.584;2022-09-09T00:30:19;15.70;76.20
67769;DHT22;54569;52.018;5.584;2022-09-09T00:32:49;15.70;75.30
67769;DHT22;54569;52.018;5.584;2022-09-09T00:35:30;15.60;75.10
67769;DHT22;54569;52.018;5.584;2022-09-09T00:38:01;15.60;76.00
67769;DHT22;54569;52.018;5.584;2022-09-09T00:40:33;15.50;75.50
67769;DHT22;54569;52.018;5.584;2022-09-09T00:48:31;15.40;76.10
67769;DHT22;54569;52.018;5.584;2022-09-09T00:51:25;15.30;76.40
67769;DHT22;54569;52.018;5.584;2022-09-09T00:54:18;15.40;76.60
67769;DHT22;54569;52.018;5.584;2022-09-09T00:59:48;15.30;76.40
67769;DHT22;54569;52.018;5.584;2022-09-09T01:04:47;15.30;76.20
67769;DHT22;54569;52.018;5.584;2022-09-09T01:07:17;15.30;76.10
67769;DHT22;54569;52.018;5.584;2022-09-09T01:12:24;15.30;76.20
67769;DHT22;54569;52.018;5.584;2022-09-09T01:15:10;15.30;76.30
67769;DHT22;54569;52.018;5.584;2022-09-09T01:20:31;15.20;76.20
67769;DHT22;54569;52.018;5.584;2022-09-09T01:28:21;15.20;76.30
67769;DHT22;54569;52.018;5.584;2022-09-09T01:30:50;15.20;76.30
67769;DHT22;54569;52.018;5.584;2022-09-09T01:33:22;15.20;76.10
67769;DHT22;54569;52.018;5.584;2022-09-09T01:36:32;15.10;76.30
67769;DHT22;54569;52.018;5.584;2022-09-09T01:38:56;15.10;77.60
67769;DHT22;54569;52.018;5.584;2022-09-09T01:41:22;15.00;76.40
67769;DHT22;54569;52.018;5.584;2022-09-09T01:43:55;14.90;76.60
67769;DHT22;54569;52.018;5.584;2022-09-09T01:46:23;14.90;76.70
67769;DHT22;54569;52.018;5.584;2022-09-09T01:48:51;14.80;77.00
67769;DHT22;54569;52.018;5.584;2022-09-09T01:51:19;14.80;77.00
67769;DHT22;54569;52.018;5.584;2022-09-09T01:53:46;14.70;77.10
67769;DHT22;54569;52.018;5.584;2022-09-09T01:56:39;14.80;77.30
67769;DHT22;54569;52.018;5.584;2022-09-09T01:59:10;14.70;77.90
67769;DHT22;54569;52.018;5.584;2022-09-09T02:02:07;14.70;77.20
67769;DHT22;54569;52.018;5.584;2022-09-09T02:04:47;14.70;77.50
67769;DHT22;54569;52.018;5.584;2022-09-09T02:10:24;14.60;77.80
67769;DHT22;54569;52.018;5.584;2022-09-09T02:13:23;14.60;78.30
67769;DHT22;54569;52.018;5.584;2022-09-09T02:21:59;14.40;77.70
67769;DHT22;54569;52.018;5.584;2022-09-09T02:24:28;14.40;77.70
67769;DHT22;54569;52.018;5.584;2022-09-09T02:27:08;14.40;78.00
67769;DHT22;54569;52.018;5.584;2022-09-09T02:29:40;14.40;77.90
67769;DHT22;54569;52.018;5.584;2022-09-09T02:32:12;14.30;78.00
67769;DHT22;54569;52.018;5.584;2022-09-09T02:34:45;14.30;77.90
67769;DHT22;54569;52.018;5.584;2022-09-09T02:37:16;14.30;77.90
67769;DHT22;54569;52.018;5.584;2022-09-09T02:39:46;14.30;78.30
67769;DHT22;54569;52.018;5.584;2022-09-09T02:42:16;14.30;78.40
67769;DHT22;54569;52.018;5.584;2022-09-09T02:44:44;14.30;78.50
67769;DHT22;54569;52.018;5.584;2022-09-09T02:50:26;14.30;79.00
67769;DHT22;54569;52.018;5.584;2022-09-09T02:58:09;14.20;79.50
67769;DHT22;54569;52.018;5.584;2022-09-09T03:00:37;14.20;78.50
67769;DHT22;54569;52.018;5.584;2022-09-09T03:03:06;14.20;78.70
67769;DHT22;54569;52.018;5.584;2022-09-09T03:05:33;14.20;78.50
67769;DHT22;54569;52.018;5.584;2022-09-09T03:07:59;14.20;78.50
67769;DHT22;54569;52.018;5.584;2022-09-09T03:10:25;14.20;78.60
67769;DHT22;54569;52.018;5.584;2022-09-09T03:12:51;14.20;78.80
67769;DHT22;54569;52.018;5.584;2022-09-09T03:15:17;14.20;78.80
67769;DHT22;54569;52.018;5.584;2022-09-09T03:17:44;14.20;78.90
67769;DHT22;54569;52.018;5.584;2022-09-09T03:20:10;14.20;79.00
67769;DHT22;54569;52.018;5.584;2022-09-09T03:22:37;14.10;78.80
67769;DHT22;54569;52.018;5.584;2022-09-09T03:25:03;14.20;78.80
67769;DHT22;54569;52.018;5.584;2022-09-09T03:27:29;14.20;78.80
67769;DHT22;54569;52.018;5.584;2022-09-09T03:29:56;14.10;79.00
67769;DHT22;54569;52.018;5.584;2022-09-09T03:32:24;14.20;79.70
67769;DHT22;54569;52.018;5.584;2022-09-09T03:34:52;14.10;79.60
67769;DHT22;54569;52.018;5.584;2022-09-09T03:37:19;14.10;79.30
67769;DHT22;54569;52.018;5.584;2022-09-09T03:39:46;14.10;79.40
67769;DHT22;54569;52.018;5.584;2022-09-09T03:42:14;14.10;79.70
67769;DHT22;54569;52.018;5.584;2022-09-09T03:44:47;14.00;80.00
67769;DHT22;54569;52.018;5.584;2022-09-09T03:47:17;14.10;79.90
67769;DHT22;54569;52.018;5.584;2022-09-09T03:49:44;14.10;79.70
67769;DHT22;54569;52.018;5.584;2022-09-09T03:52:09;14.10;79.30
67769;DHT22;54569;52.018;5.584;2022-09-09T03:54:35;14.10;79.60
67769;DHT22;54569;52.018;5.584;2022-09-09T03:57:02;14.10;79.50
67769;DHT22;54569;52.018;5.584;2022-09-09T03:59:27;14.10;80.00
67769;DHT22;54569;52.018;5.584;2022-09-09T04:01:53;14.10;79.60
67769;DHT22;54569;52.018;5.584;2022-09-09T04:04:20;14.00;80.00
67769;DHT22;54569;52.018;5.584;2022-09-09T04:06:46;14.00;80.30
67769;DHT22;54569;52.018;5.584;2022-09-09T04:09:14;14.00;80.60
67769;DHT22;54569;52.018;5.584;2022-09-09T04:11:41;14.00;80.30
67769;DHT22;54569;52.018;5.584;2022-09-09T04:14:07;14.00;80.50
67769;DHT22;54569;52.018;5.584;2022-09-09T04:16:34;13.90;80.40
67769;DHT22;54569;52.018;5.584;2022-09-09T04:19:03;13.90;80.60
67769;DHT22;54569;52.018;5.584;2022-09-09T04:21:30;14.00;80.70
67769;DHT22;54569;52.018;5.584;2022-09-09T04:23:56;14.00;80.60
67769;DHT22;54569;52.018;5.584;2022-09-09T04:26:24;14.00;80.90
67769;DHT22;54569;52.018;5.584;2022-09-09T04:28:50;14.00;80.90
67769;DHT22;54569;52.018;5.584;2022-09-09T04:31:20;14.00;80.60
67769;DHT22;54569;52.018;5.584;2022-09-09T04:33:49;14.10;80.60
67769;DHT22;54569;52.018;5.584;2022-09-09T04:36:16;14.00;80.30
67769;DHT22;54569;52.018;5.584;2022-09-09T04:38:42;14.00;80.60
67769;DHT22;54569;52.018;5.584;2022-09-09T04:41:10;14.10;80.60
67769;DHT22;54569;52.018;5.584;2022-09-09T04:43:38;14.10;80.30
67769;DHT22;54569;52.018;5.584;2022-09-09T04:46:06;14.10;80.30
67769;DHT22;54569;52.018;5.584;2022-09-09T04:48:33;14.10;80.20
67769;DHT22;54569;52.018;5.584;2022-09-09T04:51:08;14.20;80.20
67769;DHT22;54569;52.018;5.584;2022-09-09T04:53:36;14.20;80.60
67769;DHT22;54569;52.018;5.584;2022-09-09T04:56:07;14.20;80.30
67769;DHT22;54569;52.018;5.584;2022-09-09T04:58:40;14.20;80.30
67769;DHT22;54569;52.018;5.584;2022-09-09T05:03:40;14.20;80.70
67769;DHT22;54569;52.018;5.584;2022-09-09T05:06:11;14.20;80.60
67769;DHT22;54569;52.018;5.584;2022-09-09T05:08:38;14.20;80.70
67769;DHT22;54569;52.018;5.584;2022-09-09T05:11:18;14.20;80.70
67769;DHT22;54569;52.018;5.584;2022-09-09T05:13:45;14.30;81.10
67769;DHT22;54569;52.018;5.584;2022-09-09T05:16:12;14.30;80.70
67769;DHT22;54569;52.018;5.584;2022-09-09T05:18:39;14.30;80.70
67769;DHT22;54569;52.018;5.584;2022-09-09T05:21:06;14.30;80.80
67769;DHT22;54569;52.018;5.584;2022-09-09T05:23:33;14.40;81.00
67769;DHT22;54569;52.018;5.584;2022-09-09T05:25:59;14.40;81.00
67769;DHT22;54569;52.018;5.584;2022-09-09T05:28:26;14.50;81.40
67769;DHT22;54569;52.018;5.584;2022-09-09T05:31:06;14.50;81.20
67769;DHT22;54569;52.018;5.584;2022-09-09T05:33:37;14.60;81.70
67769;DHT22;54569;52.018;5.584;2022-09-09T05:36:17;14.60;81.30
67769;DHT22;54569;52.018;5.584;2022-09-09T05:38:45;14.60;81.80
67769;DHT22;54569;52.018;5.584;2022-09-09T05:41:13;14.70;81.10
67769;DHT22;54569;52.018;5.584;2022-09-09T05:43:41;14.70;80.90
67769;DHT22;54569;52.018;5.584;2022-09-09T05:46:11;14.80;81.70
67769;DHT22;54569;52.018;5.584;2022-09-09T05:48:41;14.80;81.20
67769;DHT22;54569;52.018;5.584;2022-09-09T05:51:09;14.80;81.10
67769;DHT22;54569;52.018;5.584;2022-09-09T05:53:37;14.90;80.80
67769;DHT22;54569;52.018;5.584;2022-09-09T05:56:12;14.90;81.00
67769;DHT22;54569;52.018;5.584;2022-09-09T05:58:40;14.90;81.30
67769;DHT22;54569;52.018;5.584;2022-09-09T06:01:11;15.00;80.60
67769;DHT22;54569;52.018;5.584;2022-09-09T06:03:39;15.00;80.90
67769;DHT22;54569;52.018;5.584;2022-09-09T06:06:07;15.10;81.00
67769;DHT22;54569;52.018;5.584;2022-09-09T06:08:34;15.20;80.70
67769;DHT22;54569;52.018;5.584;2022-09-09T06:11:04;15.20;80.70
67769;DHT22;54569;52.018;5.584;2022-09-09T06:13:31;15.30;80.20
67769;DHT22;54569;52.018;5.584;2022-09-09T06:15:57;15.40;80.00
67769;DHT22;54569;52.018;5.584;2022-09-09T06:18:25;15.50;80.30
67769;DHT22;54569;52.018;5.584;2022-09-09T06:21:00;15.60;79.90
67769;DHT22;54569;52.018;5.584;2022-09-09T06:23:27;15.60;80.80
67769;DHT22;54569;52.018;5.584;2022-09-09T06:26:18;15.60;80.00
67769;DHT22;54569;52.018;5.584;2022-09-09T06:28:47;15.70;80.00
67769;DHT22;54569;52.018;5.584;2022-09-09T06:31:14;15.80;80.00
67769;DHT22;54569;52.018;5.584;2022-09-09T06:33:43;15.90;79.90
67769;DHT22;54569;52.018;5.584;2022-09-09T06:36:17;15.90;79.30
67769;DHT22;54569;52.018;5.584;2022-09-09T06:38:44;16.00;79.60
67769;DHT22;54569;52.018;5.584;2022-09-09T06:41:14;16.00;79.20
67769;DHT22;54569;52.018;5.584;2022-09-09T06:43:42;16.10;79.20
67769;DHT22;54569;52.018;5.584;2022-09-09T06:46:13;16.10;79.10
67769;DHT22;54569;52.018;5.584;2022-09-09T06:48:40;16.20;79.30
67769;DHT22;54569;52.018;5.584;2022-09-09T06:53:42;16.40;78.80
67769;DHT22;54569;52.018;5.584;2022-09-09T06:58:48;16.60;78.90
67769;DHT22;54569;52.018;5.584;2022-09-09T07:01:26;16.70;77.90
67769;DHT22;54569;52.018;5.584;2022-09-09T07:03:57;16.70;78.30
67769;DHT22;54569;52.018;5.584;2022-09-09T07:06:27;16.80;77.80
67769;DHT22;54569;52.018;5.584;2022-09-09T07:08:55;17.00;77.70
67769;DHT22;54569;52.018;5.584;2022-09-09T07:11:28;17.10;77.50
67769;DHT22;54569;52.018;5.584;2022-09-09T07:14:00;17.30;76.80
67769;DHT22;54569;52.018;5.584;2022-09-09T07:16:27;17.40;76.60
67769;DHT22;54569;52.018;5.584;2022-09-09T07:18:55;17.60;76.50
67769;DHT22;54569;52.018;5.584;2022-09-09T07:21:24;17.80;75.40
67769;DHT22;54569;52.018;5.584;2022-09-09T07:23:52;18.10;74.80
67769;DHT22;54569;52.018;5.584;2022-09-09T07:26:20;18.30;74.00
67769;DHT22;54569;52.018;5.584;2022-09-09T07:28:47;18.40;74.10
67769;DHT22;54569;52.018;5.584;2022-09-09T07:31:23;18.30;74.50
67769;DHT22;54569;52.018;5.584;2022-09-09T07:33:50;18.40;74.10
67769;DHT22;54569;52.018;5.584;2022-09-09T07:36:21;18.60;74.00
67769;DHT22;54569;52.018;5.584;2022-09-09T07:38:53;18.70;73.40
67769;DHT22;54569;52.018;5.584;2022-09-09T07:43:49;18.50;73.60
67769;DHT22;54569;52.018;5.584;2022-09-09T07:46:16;18.50;73.90
67769;DHT22;54569;52.018;5.584;2022-09-09T07:48:51;18.50;74.00
67769;DHT22;54569;52.018;5.584;2022-09-09T07:51:26;18.60;73.60
67769;DHT22;54569;52.018;5.584;2022-09-09T07:53:55;18.80;73.30
67769;DHT22;54569;52.018;5.584;2022-09-09T07:56:21;18.70;72.70
67769;DHT22;54569;52.018;5.584;2022-09-09T07:58:50;18.50;73.10
67769;DHT22;54569;52.018;5.584;2022-09-09T08:03:52;18.10;74.30
67769;DHT22;54569;52.018;5.584;2022-09-09T08:06:18;18.10;74.60
67769;DHT22;54569;52.018;5.584;2022-09-09T08:08:44;18.00;74.80
67769;DHT22;54569;52.018;5.584;2022-09-09T08:11:14;18.00;75.00
67769;DHT22;54569;52.018;5.584;2022-09-09T08:13:41;18.00;75.10
67769;DHT22;54569;52.018;5.584;2022-09-09T08:16:16;18.00;74.90
67769;DHT22;54569;52.018;5.584;2022-09-09T08:18:42;18.00;74.90
67769;DHT22;54569;52.018;5.584;2022-09-09T08:21:14;17.90;75.00
67769;DHT22;54569;52.018;5.584;2022-09-09T08:23:43;17.90;74.90
67769;DHT22;54569;52.018;5.584;2022-09-09T08:26:16;18.00;76.20
67769;DHT22;54569;52.018;5.584;2022-09-09T08:28:43;18.20;74.20
67769;DHT22;54569;52.018;5.584;2022-09-09T08:31:15;18.50;72.90
67769;DHT22;54569;52.018;5.584;2022-09-09T08:33:42;18.90;71.70
67769;DHT22;54569;52.018;5.584;2022-09-09T08:36:16;18.90;71.00
67769;DHT22;54569;52.018;5.584;2022-09-09T08:38:43;18.80;71.40
67769;DHT22;54569;52.018;5.584;2022-09-09T08:52:22;18.30;73.10
67769;DHT22;54569;52.018;5.584;2022-09-09T08:54:49;18.30;72.80
67769;DHT22;54569;52.018;5.584;2022-09-09T08:57:23;18.30;73.00
67769;DHT22;54569;52.018;5.584;2022-09-09T08:59:52;18.40;72.80
67769;DHT22;54569;52.018;5.584;2022-09-09T09:05:31;18.30;72.50
67769;DHT22;54569;52.018;5.584;2022-09-09T09:08:43;18.30;72.80
67769;DHT22;54569;52.018;5.584;2022-09-09T09:10:53;18.30;72.70
67769;DHT22;54569;52.018;5.584;2022-09-09T09:16:02;18.30;72.60
67769;DHT22;54569;52.018;5.584;2022-09-09T09:18:31;18.20;72.70
67769;DHT22;54569;52.018;5.584;2022-09-09T09:23:38;18.20;73.00
67769;DHT22;54569;52.018;5.584;2022-09-09T09:26:07;18.20;73.10
67769;DHT22;54569;52.018;5.584;2022-09-09T09:28:36;18.10;73.00
67769;DHT22;54569;52.018;5.584;2022-09-09T09:31:10;18.10;72.90
67769;DHT22;54569;52.018;5.584;2022-09-09T09:33:48;18.10;73.00
67769;DHT22;54569;52.018;5.584;2022-09-09T09:36:16;18.10;73.00
67769;DHT22;54569;52.018;5.584;2022-09-09T09:38:58;18.10;72.70
67769;DHT22;54569;52.018;5.584;2022-09-09T09:41:36;18.20;72.90
67769;DHT22;54569;52.018;5.584;2022-09-09T09:44:05;18.20;72.80
67769;DHT22;54569;52.018;5.584;2022-09-09T09:46:35;18.20;72.70
67769;DHT22;54569;52.018;5.584;2022-09-09T09:49:09;18.20;72.60
67769;DHT22;54569;52.018;5.584;2022-09-09T09:51:37;18.20;72.60
67769;DHT22;54569;52.018;5.584;2022-09-09T09:54:28;18.20;72.50
67769;DHT22;54569;52.018;5.584;2022-09-09T09:57:17;18.30;73.10
67769;DHT22;54569;52.018;5.584;2022-09-09T09:59:46;18.30;73.10
67769;DHT22;54569;52.018;5.584;2022-09-09T10:02:23;18.30;72.50
67769;DHT22;54569;52.018;5.584;2022-09-09T10:05:03;18.40;72.20
67769;DHT22;54569;52.018;5.584;2022-09-09T10:07:29;18.50;72.10
67769;DHT22;54569;52.018;5.584;2022-09-09T10:09:57;18.40;72.10
67769;DHT22;54569;52.018;5.584;2022-09-09T10:12:42;18.50;72.40
67769;DHT22;54569;52.018;5.584;2022-09-09T10:15:36;18.50;72.40
67769;DHT22;54569;52.018;5.584;2022-09-09T10:23:42;18.40;72.20
67769;DHT22;54569;52.018;5.584;2022-09-09T10:51:51;17.80;76.70
67769;DHT22;54569;52.018;5.584;2022-09-09T10:56:58;17.80;76.20
67769;DHT22;54569;52.018;5.584;2022-09-09T10:59:29;17.70;77.00
67769;DHT22;54569;52.018;5.584;2022-09-09T11:02:19;17.70;77.30
67769;DHT22;54569;52.018;5.584;2022-09-09T11:07:57;18.30;76.80
67769;DHT22;54569;52.018;5.584;2022-09-09T11:10:58;18.90;77.20
67769;DHT22;54569;52.018;5.584;2022-09-09T11:18:40;19.30;73.30
67769;DHT22;54569;52.018;5.584;2022-09-09T11:21:14;19.10;73.50
67769;DHT22;54569;52.018;5.584;2022-09-09T11:23:47;18.70;74.50
67769;DHT22;54569;52.018;5.584;2022-09-09T11:26:21;18.50;75.40
67769;DHT22;54569;52.018;5.584;2022-09-09T11:31:44;18.60;77.90
67769;DHT22;54569;52.018;5.584;2022-09-09T11:36:56;20.40;73.10
67769;DHT22;54569;52.018;5.584;2022-09-09T11:39:36;21.90;67.90
67769;DHT22;54569;52.018;5.584;2022-09-09T11:44:37;24.00;63.10
67769;DHT22;54569;52.018;5.584;2022-09-09T11:47:03;23.70;63.20
67769;DHT22;54569;52.018;5.584;2022-09-09T11:49:42;22.90;64.60
67769;DHT22;54569;52.018;5.584;2022-09-09T11:52:41;22.00;67.10
67769;DHT22;54569;52.018;5.584;2022-09-09T11:55:11;21.60;67.50
67769;DHT22;54569;52.018;5.584;2022-09-09T11:57:38;21.20;69.20
67769;DHT22;54569;52.018;5.584;2022-09-09T12:00:04;20.70;70.50
67769;DHT22;54569;52.018;5.584;2022-09-09T12:02:48;20.30;71.40
67769;DHT22;54569;52.018;5.584;2022-09-09T12:05:15;20.00;71.50
67769;DHT22;54569;52.018;5.584;2022-09-09T12:07:57;19.90;72.80
67769;DHT22;54569;52.018;5.584;2022-09-09T12:10:34;19.70;72.60
67769;DHT22;54569;52.018;5.584;2022-09-09T12:13:27;19.50;73.10
67769;DHT22;54569;52.018;5.584;2022-09-09T12:15:55;19.40;73.60
67769;DHT22;54569;52.018;5.584;2022-09-09T12:18:40;19.30;74.10
67769;DHT22;54569;52.018;5.584;2022-09-09T12:21:41;19.20;73.80
67769;DHT22;54569;52.018;5.584;2022-09-09T12:24:16;19.10;74.00
67769;DHT22;54569;52.018;5.584;2022-09-09T12:26:50;18.90;74.20
67769;DHT22;54569;52.018;5.584;2022-09-09T12:29:23;18.90;74.50
67769;DHT22;54569;52.018;5.584;2022-09-09T12:32:12;18.90;74.40
67769;DHT22;54569;52.018;5.584;2022-09-09T12:35:23;19.00;75.10
67769;DHT22;54569;52.018;5.584;2022-09-09T12:42:46;19.40;73.10
67769;DHT22;54569;52.018;5.584;2022-09-09T12:45:20;19.40;72.60
67769;DHT22;54569;52.018;5.584;2022-09-09T12:48:07;19.40;72.70
67769;DHT22;54569;52.018;5.584;2022-09-09T12:50:38;19.30;72.70
67769;DHT22;54569;52.018;5.584;2022-09-09T12:53:36;19.30;73.50
67769;DHT22;54569;52.018;5.584;2022-09-09T12:56:17;19.20;73.50
67769;DHT22;54569;52.018;5.584;2022-09-09T12:58:47;19.10;73.20
67769;DHT22;54569;52.018;5.584;2022-09-09T13:01:32;19.10;73.20
67769;DHT22;54569;52.018;5.584;2022-09-09T13:04:01;19.10;73.60
67769;DHT22;54569;52.018;5.584;2022-09-09T13:06:31;19.10;72.80
67769;DHT22;54569;52.018;5.584;2022-09-09T13:09:00;19.10;72.70
67769;DHT22;54569;52.018;5.584;2022-09-09T13:11:30;19.10;72.80
67769;DHT22;54569;52.018;5.584;2022-09-09T13:13:58;19.10;72.80
67769;DHT22;54569;52.018;5.584;2022-09-09T13:16:29;19.10;72.80
67769;DHT22;54569;52.018;5.584;2022-09-09T13:18:58;19.10;72.90
67769;DHT22;54569;52.018;5.584;2022-09-09T13:21:39;19.10;72.70
67769;DHT22;54569;52.018;5.584;2022-09-09T13:24:21;19.30;72.60
67769;DHT22;54569;52.018;5.584;2022-09-09T13:26:56;19.30;72.00
67769;DHT22;54569;52.018;5.584;2022-09-09T13:29:22;19.30;72.20
67769;DHT22;54569;52.018;5.584;2022-09-09T13:31:48;19.20;72.30
67769;DHT22;54569;52.018;5.584;2022-09-09T13:34:32;19.30;72.40
67769;DHT22;54569;52.018;5.584;2022-09-09T13:37:06;19.40;72.40
67769;DHT22;54569;52.018;5.584;2022-09-09T13:39:36;19.50;71.70
67769;DHT22;54569;52.018;5.584;2022-09-09T13:42:03;19.70;71.10
67769;DHT22;54569;52.018;5.584;2022-09-09T13:44:36;19.80;70.60
67769;DHT22;54569;52.018;5.584;2022-09-09T13:47:36;19.90;70.40
67769;DHT22;54569;52.018;5.584;2022-09-09T13:52:57;20.00;70.20
67769;DHT22;54569;52.018;5.584;2022-09-09T13:55:26;20.10;70.10
67769;DHT22;54569;52.018;5.584;2022-09-09T14:00:18;20.10;70.20
67769;DHT22;54569;52.018;5.584;2022-09-09T14:02:44;20.10;70.00
67769;DHT22;54569;52.018;5.584;2022-09-09T14:05:10;20.10;69.90
67769;DHT22;54569;52.018;5.584;2022-09-09T14:07:38;20.10;70.00
67769;DHT22;54569;52.018;5.584;2022-09-09T14:10:06;20.10;69.90
67769;DHT22;54569;52.018;5.584;2022-09-09T14:12:33;20.10;69.80
67769;DHT22;54569;52.018;5.584;2022-09-09T14:14:58;20.10;70.00
67769;DHT22;54569;52.018;5.584;2022-09-09T14:17:25;20.10;70.00
67769;DHT22;54569;52.018;5.584;2022-09-09T14:19:55;20.10;70.30
67769;DHT22;54569;52.018;5.584;2022-09-09T14:22:21;20.10;70.40
67769;DHT22;54569;52.018;5.584;2022-09-09T14:24:48;20.10;70.20
67769;DHT22;54569;52.018;5.584;2022-09-09T14:27:14;20.20;70.20
67769;DHT22;54569;52.018;5.584;2022-09-09T14:29:39;20.30;70.20
67769;DHT22;54569;52.018;5.584;2022-09-09T14:32:05;20.30;69.90
67769;DHT22;54569;52.018;5.584;2022-09-09T14:34:30;20.40;69.90
67769;DHT22;54569;52.018;5.584;2022-09-09T14:36:58;20.40;70.00
67769;DHT22;54569;52.018;5.584;2022-09-09T14:39:24;20.40;70.00
67769;DHT22;54569;52.018;5.584;2022-09-09T14:41:49;20.30;70.20
67769;DHT22;54569;52.018;5.584;2022-09-09T14:44:15;20.30;70.50
67769;DHT22;54569;52.018;5.584;2022-09-09T14:46:44;20.20;70.60
67769;DHT22;54569;52.018;5.584;2022-09-09T14:49:10;20.20;70.80
67769;DHT22;54569;52.018;5.584;2022-09-09T14:51:36;20.10;70.80
67769;DHT22;54569;52.018;5.584;2022-09-09T14:54:02;20.10;71.10
67769;DHT22;54569;52.018;5.584;2022-09-09T14:56:33;20.00;71.10
67769;DHT22;54569;52.018;5.584;2022-09-09T14:59:00;20.10;71.20
67769;DHT22;54569;52.018;5.584;2022-09-09T15:01:27;20.20;71.10
67769;DHT22;54569;52.018;5.584;2022-09-09T15:04:00;20.30;70.70
67769;DHT22;54569;52.018;5.584;2022-09-09T15:06:28;20.30;70.50
67769;DHT22;54569;52.018;5.584;2022-09-09T15:08:55;20.40;70.50
67769;DHT22;54569;52.018;5.584;2022-09-09T15:11:27;20.50;70.30
67769;DHT22;54569;52.018;5.584;2022-09-09T15:13:53;20.60;70.00
67769;DHT22;54569;52.018;5.584;2022-09-09T15:16:26;20.70;69.60
67769;DHT22;54569;52.018;5.584;2022-09-09T15:18:54;20.70;69.40
67769;DHT22;54569;52.018;5.584;2022-09-09T15:21:22;20.80;69.70
67769;DHT22;54569;52.018;5.584;2022-09-09T15:23:48;20.80;69.60
67769;DHT22;54569;52.018;5.584;2022-09-09T15:26:15;20.90;69.20
67769;DHT22;54569;52.018;5.584;2022-09-09T15:28:42;21.00;69.30
67769;DHT22;54569;52.018;5.584;2022-09-09T15:36:23;20.70;69.90
67769;DHT22;54569;52.018;5.584;2022-09-09T15:39:01;20.50;70.00
67769;DHT22;54569;52.018;5.584;2022-09-09T15:41:48;20.50;70.30
67769;DHT22;54569;52.018;5.584;2022-09-09T15:44:15;20.50;70.60
67769;DHT22;54569;52.018;5.584;2022-09-09T15:46:46;20.50;70.20
67769;DHT22;54569;52.018;5.584;2022-09-09T15:49:22;20.50;70.10
67769;DHT22;54569;52.018;5.584;2022-09-09T15:51:58;20.60;70.00
67769;DHT22;54569;52.018;5.584;2022-09-09T15:54:25;20.60;69.80
67769;DHT22;54569;52.018;5.584;2022-09-09T15:56:54;20.50;69.60
67769;DHT22;54569;52.018;5.584;2022-09-09T15:59:25;20.50;69.80
67769;DHT22;54569;52.018;5.584;2022-09-09T16:01:51;20.40;70.30
67769;DHT22;54569;52.018;5.584;2022-09-09T16:04:18;20.30;70.30
67769;DHT22;54569;52.018;5.584;2022-09-09T16:06:56;20.30;70.50
67769;DHT22;54569;52.018;5.584;2022-09-09T16:09:24;20.10;70.60
67769;DHT22;54569;52.018;5.584;2022-09-09T16:11:51;20.00;70.60
67769;DHT22;54569;52.018;5.584;2022-09-09T16:14:18;20.00;70.70
67769;DHT22;54569;52.018;5.584;2022-09-09T16:16:44;19.90;70.40
67769;DHT22;54569;52.018;5.584;2022-09-09T16:19:11;19.90;70.50
67769;DHT22;54569;52.018;5.584;2022-09-09T16:21:44;19.90;69.80
67769;DHT22;54569;52.018;5.584;2022-09-09T16:24:11;19.80;69.70
67769;DHT22;54569;52.018;5.584;2022-09-09T16:26:40;19.70;69.90
67769;DHT22;54569;52.018;5.584;2022-09-09T16:29:06;19.70;70.00
67769;DHT22;54569;52.018;5.584;2022-09-09T16:31:32;19.70;69.90
67769;DHT22;54569;52.018;5.584;2022-09-09T16:33:58;19.60;70.10
67769;DHT22;54569;52.018;5.584;2022-09-09T16:36:26;19.60;70.20
67769;DHT22;54569;52.018;5.584;2022-09-09T16:38:53;19.70;70.30
67769;DHT22;54569;52.018;5.584;2022-09-09T16:41:20;19.70;70.30
67769;DHT22;54569;52.018;5.584;2022-09-09T16:43:46;19.70;70.10
67769;DHT22;54569;52.018;5.584;2022-09-09T16:46:17;19.70;70.10
67769;DHT22;54569;52.018;5.584;2022-09-09T16:48:45;19.60;70.10
67769;DHT22;54569;52.018;5.584;2022-09-09T16:51:14;19.70;70.30
67769;DHT22;54569;52.018;5.584;2022-09-09T16:53:41;19.70;70.10
67769;DHT22;54569;52.018;5.584;2022-09-09T16:56:19;19.70;70.20
67769;DHT22;54569;52.018;5.584;2022-09-09T16:58:50;19.60;70.20
67769;DHT22;54569;52.018;5.584;2022-09-09T17:01:16;19.60;70.60
67769;DHT22;54569;52.018;5.584;2022-09-09T17:03:42;19.50;70.70
67769;DHT22;54569;52.018;5.584;2022-09-09T17:06:14;19.50;70.80
67769;DHT22;54569;52.018;5.584;2022-09-09T17:08:41;19.50;70.90
67769;DHT22;54569;52.018;5.584;2022-09-09T17:11:18;19.40;71.00
67769;DHT22;54569;52.018;5.584;2022-09-09T17:13:47;19.40;71.00
67769;DHT22;54569;52.018;5.584;2022-09-09T17:16:15;19.40;71.20
67769;DHT22;54569;52.018;5.584;2022-09-09T17:18:42;19.40;71.30
67769;DHT22;54569;52.018;5.584;2022-09-09T17:21:09;19.40;71.40
67769;DHT22;54569;52.018;5.584;2022-09-09T17:23:36;19.30;71.30
67769;DHT22;54569;52.018;5.584;2022-09-09T17:26:05;19.20;71.60
67769;DHT22;54569;52.018;5.584;2022-09-09T17:28:34;19.10;71.70
67769;DHT22;54569;52.018;5.584;2022-09-09T17:31:00;19.10;71.90
67769;DHT22;54569;52.018;5.584;2022-09-09T17:33:30;19.10;72.00
67769;DHT22;54569;52.018;5.584;2022-09-09T17:36:01;19.00;72.00
67769;DHT22;54569;52.018;5.584;2022-09-09T17:38:28;19.00;72.20
67769;DHT22;54569;52.018;5.584;2022-09-09T17:41:16;18.90;72.20
67769;DHT22;54569;52.018;5.584;2022-09-09T17:43:42;18.90;72.30
67769;DHT22;54569;52.018;5.584;2022-09-09T17:48:43;18.90;72.80
67769;DHT22;54569;52.018;5.584;2022-09-09T17:51:14;18.80;73.00
67769;DHT22;54569;52.018;5.584;2022-09-09T17:53:47;18.80;73.20
67769;DHT22;54569;52.018;5.584;2022-09-09T17:56:15;18.80;73.30
67769;DHT22;54569;52.018;5.584;2022-09-09T17:58:41;18.80;73.70
67769;DHT22;54569;52.018;5.584;2022-09-09T18:01:22;18.70;73.80
67769;DHT22;54569;52.018;5.584;2022-09-09T18:03:49;18.70;74.00
67769;DHT22;54569;52.018;5.584;2022-09-09T18:06:17;18.60;74.10
67769;DHT22;54569;52.018;5.584;2022-09-09T18:08:55;18.60;74.20
67769;DHT22;54569;52.018;5.584;2022-09-09T18:11:23;18.60;74.50
67769;DHT22;54569;52.018;5.584;2022-09-09T18:13:51;18.50;74.30
67769;DHT22;54569;52.018;5.584;2022-09-09T18:16:17;18.50;74.40
67769;DHT22;54569;52.018;5.584;2022-09-09T18:18:45;18.40;74.40
67769;DHT22;54569;52.018;5.584;2022-09-09T18:21:11;18.40;74.50
67769;DHT22;54569;52.018;5.584;2022-09-09T18:23:39;18.40;74.70
67769;DHT22;54569;52.018;5.584;2022-09-09T18:26:14;18.30;74.80